createdAt,value
2023-02-27T00:02:01.176Z,96996.00
2023-02-27T00:04:28.042Z,97001.00
2023-02-27T00:06:54.782Z,97007.00
2023-02-27T00:09:21.579Z,97004.00
2023-02-27T00:11:48.364Z,97003.00
2023-02-27T00:14:15.113Z,96999.00
2023-02-27T00:16:41.984Z,97001.00
2023-02-27T00:19:08.802Z,96991.00
2023-02-27T00:21:36.943Z,96975.00
2023-02-27T00:24:04.711Z,97011.00
2023-02-27T00:26:31.595Z,97007.00
2023-02-27T00:28:58.347Z,97003.00
2023-02-27T00:31:25.564Z,96990.00
2023-02-27T00:33:52.511Z,97007.00
2023-02-27T00:36:19.268Z,97007.00
2023-02-27T00:38:46.042Z,97019.00
2023-02-27T00:41:12.811Z,97009.00
2023-02-27T00:43:39.630Z,97007.00
2023-02-27T00:46:06.510Z,97009.00
2023-02-27T00:48:33.410Z,97004.00
2023-02-27T00:51:00.190Z,97001.00
2023-02-27T00:53:26.931Z,96989.00
2023-02-27T00:55:53.680Z,96993.00
2023-02-27T00:58:20.599Z,96986.00
2023-02-27T01:00:47.421Z,96987.00
2023-02-27T01:03:14.473Z,97013.00
2023-02-27T01:05:41.251Z,97009.00
2023-02-27T01:08:08.239Z,97004.00
2023-02-27T01:10:35.026Z,97000.00
2023-02-27T01:13:01.760Z,96989.00
2023-02-27T01:15:28.584Z,97008.00
2023-02-27T01:17:55.373Z,97003.00
2023-02-27T01:20:22.197Z,97005.00
2023-02-27T01:22:48.977Z,97006.00
2023-02-27T01:25:15.877Z,96993.00
2023-02-27T01:27:42.981Z,96990.00
2023-02-27T01:30:11.686Z,96985.00
2023-02-27T01:32:38.604Z,96988.00
2023-02-27T01:35:06.329Z,96985.00
2023-02-27T01:37:33.088Z,96974.00
2023-02-27T01:39:59.912Z,96984.00
2023-02-27T01:42:28.866Z,96980.00
2023-02-27T01:45:25.029Z,96976.00
2023-02-27T01:48:07.606Z,96988.00
2023-02-27T01:50:38.858Z,96985.00
2023-02-27T01:53:06.915Z,97000.00
2023-02-27T01:55:38.135Z,96993.00
2023-02-27T01:58:08.103Z,96996.00
2023-02-27T02:00:35.082Z,96997.00
2023-02-27T02:03:28.034Z,96981.00
2023-02-27T02:05:58.383Z,96973.00
2023-02-27T02:08:29.136Z,96976.00
2023-02-27T02:10:56.863Z,96974.00
2023-02-27T02:13:24.237Z,96969.00
2023-02-27T02:16:32.447Z,96978.00
2023-02-27T02:19:23.379Z,96980.00
2023-02-27T02:22:21.391Z,96965.00
2023-02-27T02:25:45.316Z,96964.00
2023-02-27T02:28:18.244Z,96971.00
2023-02-27T02:31:02.037Z,96980.00
2023-02-27T02:33:40.971Z,96978.00
2023-02-27T02:36:10.668Z,96967.00
2023-02-27T02:39:15.629Z,96977.00
2023-02-27T02:42:05.439Z,96980.00
2023-02-27T02:44:38.205Z,96969.00
2023-02-27T02:47:36.288Z,96959.00
2023-02-27T02:50:35.792Z,96957.00
2023-02-27T02:53:36.571Z,96958.00
2023-02-27T02:56:16.507Z,96960.00
2023-02-27T02:58:50.846Z,96961.00
2023-02-27T03:01:35.156Z,96952.00
2023-02-27T03:04:20.558Z,96951.00
2023-02-27T03:07:05.819Z,96968.00
2023-02-27T03:09:41.535Z,96955.00
2023-02-27T03:12:13.834Z,96965.00
2023-02-27T03:15:13.602Z,96949.00
2023-02-27T03:18:08.762Z,96984.00
2023-02-27T03:20:46.686Z,96961.00
2023-02-27T03:23:27.952Z,96970.00
2023-02-27T03:25:58.139Z,96966.00
2023-02-27T03:28:32.827Z,96975.00
2023-02-27T03:31:26.540Z,96965.00
2023-02-27T03:34:02.653Z,96968.00
2023-02-27T03:37:14.792Z,96975.00
2023-02-27T03:40:01.241Z,96972.00
2023-02-27T03:42:55.846Z,96980.00
2023-02-27T03:46:11.592Z,96980.00
2023-02-27T03:48:44.398Z,96977.00
2023-02-27T03:51:23.630Z,96987.00
2023-02-27T03:54:07.283Z,96985.00
2023-02-27T03:56:44.720Z,96998.00
2023-02-27T03:59:11.594Z,97002.00
2023-02-27T04:01:38.878Z,96992.00
2023-02-27T04:04:14.121Z,96997.00
2023-02-27T04:07:07.362Z,96988.00
2023-02-27T04:09:59.035Z,96993.00
2023-02-27T04:12:31.598Z,96992.00
2023-02-27T04:15:25.825Z,97002.00
2023-02-27T04:18:31.984Z,97009.00
2023-02-27T04:21:09.845Z,97003.00
2023-02-27T04:23:59.200Z,97007.00
2023-02-27T04:26:54.398Z,97003.00
2023-02-27T04:29:42.701Z,96993.00
2023-02-27T04:33:15.787Z,97014.00
2023-02-27T04:35:54.728Z,97007.00
2023-02-27T04:38:27.874Z,97003.00
2023-02-27T04:41:20.261Z,97009.00
2023-02-27T04:43:48.312Z,97010.00
2023-02-27T04:46:18.562Z,97010.00
2023-02-27T04:49:00.103Z,96999.00
2023-02-27T04:51:45.893Z,97019.00
2023-02-27T04:54:19.193Z,97020.00
2023-02-27T04:56:54.147Z,97025.00
2023-02-27T04:59:30.084Z,97034.00
2023-02-27T05:02:02.728Z,97019.00
2023-02-27T05:04:35.998Z,97020.00
2023-02-27T05:07:06.206Z,97018.00
2023-02-27T05:09:53.084Z,97029.00
2023-02-27T05:12:51.869Z,97020.00
2023-02-27T05:15:40.832Z,97026.00
2023-02-27T05:18:11.320Z,97030.00
2023-02-27T05:21:06.340Z,97031.00
2023-02-27T05:24:09.689Z,97034.00
2023-02-27T05:27:00.182Z,97036.00
2023-02-27T05:29:48.519Z,97036.00
2023-02-27T05:32:34.153Z,97033.00
2023-02-27T05:35:28.752Z,97039.00
2023-02-27T05:38:22.010Z,97042.00
2023-02-27T05:40:58.674Z,97044.00
2023-02-27T05:43:40.726Z,97042.00
2023-02-27T05:46:14.415Z,97039.00
2023-02-27T05:49:30.675Z,97050.00
2023-02-27T05:52:03.399Z,97044.00
2023-02-27T05:54:34.833Z,97043.00
2023-02-27T05:57:02.789Z,97055.00
2023-02-27T05:59:43.417Z,97036.00
2023-02-27T06:02:12.106Z,97057.00
2023-02-27T06:04:40.853Z,97052.00
2023-02-27T06:07:08.666Z,97057.00
2023-02-27T06:09:35.820Z,97046.00
2023-02-27T06:12:02.668Z,97049.00
2023-02-27T06:14:29.403Z,97063.00
2023-02-27T06:16:56.219Z,97055.00
2023-02-27T06:19:23.017Z,97046.00
2023-02-27T06:21:49.982Z,97055.00
2023-02-27T06:24:16.737Z,97060.00
2023-02-27T06:26:43.558Z,97065.00
2023-02-27T06:29:10.386Z,97066.00
2023-02-27T06:31:37.139Z,97064.00
2023-02-27T06:34:03.899Z,97070.00
2023-02-27T06:36:30.845Z,97068.00
2023-02-27T06:38:57.988Z,97076.00
2023-02-27T06:41:24.834Z,97070.00
2023-02-27T06:43:51.578Z,97087.00
2023-02-27T06:46:18.380Z,97081.00
2023-02-27T06:48:45.613Z,97086.00
2023-02-27T06:51:12.405Z,97089.00
2023-02-27T06:53:39.215Z,97100.00
2023-02-27T06:56:07.481Z,97099.00
2023-02-27T06:58:34.206Z,97100.00
2023-02-27T07:01:01.145Z,97097.00
2023-02-27T07:03:28.981Z,97101.00
2023-02-27T07:05:58.742Z,97098.00
2023-02-27T07:08:25.597Z,97091.00
2023-02-27T07:10:52.340Z,97095.00
2023-02-27T07:13:19.839Z,97103.00
2023-02-27T07:15:46.853Z,97101.00
2023-02-27T07:18:13.749Z,97111.00
2023-02-27T07:20:40.535Z,97097.00
2023-02-27T07:23:07.640Z,97121.00
2023-02-27T07:25:34.456Z,97113.00
2023-02-27T07:28:01.231Z,97119.00
2023-02-27T07:30:28.683Z,97110.00
2023-02-27T07:32:55.481Z,97122.00
2023-02-27T07:35:22.654Z,97120.00
2023-02-27T07:37:49.394Z,97114.00
2023-02-27T07:40:17.369Z,97122.00
2023-02-27T07:42:44.238Z,97122.00
2023-02-27T07:45:11.481Z,97131.00
2023-02-27T07:47:38.257Z,97125.00
2023-02-27T07:50:05.651Z,97128.00
2023-02-27T07:52:32.895Z,97122.00
2023-02-27T07:54:59.660Z,97114.00
2023-02-27T07:57:26.483Z,97120.00
2023-02-27T07:59:53.257Z,97122.00
2023-02-27T08:02:20.116Z,97134.00
2023-02-27T08:04:46.917Z,97142.00
2023-02-27T08:07:13.741Z,97136.00
2023-02-27T08:09:40.494Z,97144.00
2023-02-27T08:12:07.271Z,97144.00
2023-02-27T08:14:34.006Z,97142.00
2023-02-27T08:17:01.195Z,97144.00
2023-02-27T08:19:27.971Z,97143.00
2023-02-27T08:21:54.761Z,97155.00
2023-02-27T08:24:21.610Z,97143.00
2023-02-27T08:26:48.593Z,97156.00
2023-02-27T08:29:17.007Z,97143.00
2023-02-27T08:31:44.168Z,97150.00
2023-02-27T08:34:11.191Z,97158.00
2023-02-27T08:36:39.182Z,97153.00
2023-02-27T08:39:07.083Z,97162.00
2023-02-27T08:41:34.800Z,97153.00
2023-02-27T08:44:01.960Z,97164.00
2023-02-27T08:46:29.156Z,97163.00
2023-02-27T08:48:56.159Z,97157.00
2023-02-27T08:51:22.948Z,97164.00
2023-02-27T08:53:49.753Z,97164.00
2023-02-27T08:56:16.557Z,97167.00
2023-02-27T08:58:43.347Z,97168.00
2023-02-27T09:01:10.122Z,97172.00
2023-02-27T09:03:37.300Z,97160.00
2023-02-27T09:06:05.200Z,97170.00
2023-02-27T09:08:32.139Z,97171.00
2023-02-27T09:10:59.179Z,97165.00
2023-02-27T09:13:26.799Z,97175.00
2023-02-27T09:15:54.547Z,97164.00
2023-02-27T09:18:22.501Z,97183.00
2023-02-27T09:20:51.074Z,97179.00
2023-02-27T09:23:18.085Z,97180.00
2023-02-27T09:25:47.282Z,97185.00
2023-02-27T09:28:14.170Z,97180.00
2023-02-27T09:30:40.967Z,97183.00
2023-02-27T09:33:07.965Z,97178.00
2023-02-27T09:35:34.767Z,97203.00
2023-02-27T09:38:01.522Z,97191.00
2023-02-27T09:40:32.337Z,97193.00
2023-02-27T09:43:11.558Z,97190.00
2023-02-27T09:45:39.523Z,97190.00
2023-02-27T09:48:46.660Z,97193.00
2023-02-27T09:51:16.654Z,97206.00
2023-02-27T09:53:47.808Z,97202.00
2023-02-27T09:56:30.925Z,97203.00
2023-02-27T09:59:30.933Z,97213.00
2023-02-27T10:02:23.201Z,97209.00
2023-02-27T10:05:21.911Z,97218.00
2023-02-27T10:08:04.997Z,97221.00
2023-02-27T10:10:44.525Z,97239.00
2023-02-27T10:13:39.695Z,97230.00
2023-02-27T10:16:16.163Z,97248.00
2023-02-27T10:18:51.405Z,97239.00
2023-02-27T10:21:28.282Z,97242.00
2023-02-27T10:24:02.271Z,97241.00
2023-02-27T10:26:36.091Z,97253.00
2023-02-27T10:29:31.591Z,97246.00
2023-02-27T10:32:26.717Z,97245.00
2023-02-27T10:35:08.827Z,97234.00
2023-02-27T10:37:39.902Z,97238.00
2023-02-27T10:40:07.723Z,97248.00
2023-02-27T10:42:40.696Z,97254.00
2023-02-27T10:45:17.619Z,97254.00
2023-02-27T10:47:45.400Z,97237.00
2023-02-27T10:50:31.942Z,97256.00
2023-02-27T10:53:04.959Z,97253.00
2023-02-27T10:55:38.171Z,97271.00
2023-02-27T10:58:05.744Z,97259.00
2023-02-27T11:00:38.130Z,97254.00
2023-02-27T11:03:06.085Z,97264.00
2023-02-27T11:05:36.187Z,97263.00
2023-02-27T11:08:28.312Z,97248.00
2023-02-27T11:11:02.506Z,97260.00
2023-02-27T11:13:36.662Z,97259.00
2023-02-27T11:16:21.876Z,97245.00
2023-02-27T11:18:51.691Z,97255.00
2023-02-27T11:21:30.376Z,97264.00
2023-02-27T11:24:06.320Z,97268.00
2023-02-27T11:26:40.235Z,97252.00
2023-02-27T11:29:11.592Z,97258.00
2023-02-27T11:31:39.429Z,97249.00
2023-02-27T11:34:08.221Z,97247.00
2023-02-27T11:36:47.383Z,97252.00
2023-02-27T11:39:26.283Z,97241.00
2023-02-27T11:41:55.664Z,97247.00
2023-02-27T11:44:50.469Z,97235.00
2023-02-27T11:47:16.937Z,97226.00
2023-02-27T11:50:09.806Z,97231.00
2023-02-27T11:52:48.330Z,97227.00
2023-02-27T11:55:21.010Z,97226.00
2023-02-27T11:57:54.488Z,97233.00
2023-02-27T12:00:28.704Z,97254.00
2023-02-27T12:03:22.497Z,97253.00
2023-02-27T12:06:00.897Z,97245.00
2023-02-27T12:09:06.035Z,97252.00
2023-02-27T12:11:42.321Z,97254.00
2023-02-27T12:14:08.961Z,97249.00
2023-02-27T12:16:51.128Z,97256.00
2023-02-27T12:19:39.787Z,97235.00
2023-02-27T12:22:27.072Z,97258.00
2023-02-27T12:25:17.454Z,97237.00
2023-02-27T12:27:52.403Z,97237.00
2023-02-27T12:30:27.286Z,97244.00
2023-02-27T12:32:54.839Z,97237.00
2023-02-27T12:35:28.946Z,97239.00
2023-02-27T12:37:57.292Z,97245.00
2023-02-27T12:40:37.812Z,97237.00
2023-02-27T12:43:22.913Z,97228.00
2023-02-27T12:46:29.116Z,97234.00
2023-02-27T12:49:39.402Z,97236.00
2023-02-27T12:52:39.051Z,97246.00
2023-02-27T12:55:11.093Z,97224.00
2023-02-27T12:58:17.655Z,97238.00
2023-02-27T13:01:01.654Z,97242.00
2023-02-27T13:03:54.576Z,97238.00
2023-02-27T13:06:51.891Z,97242.00
2023-02-27T13:09:49.714Z,97228.00
2023-02-27T13:12:27.156Z,97237.00
2023-02-27T13:15:02.659Z,97236.00
2023-02-27T13:17:48.534Z,97243.00
2023-02-27T13:20:25.176Z,97228.00
2023-02-27T13:23:19.929Z,97226.00
2023-02-27T13:25:51.088Z,97236.00
2023-02-27T13:28:26.368Z,97254.00
2023-02-27T13:31:20.543Z,97232.00
2023-02-27T13:34:16.674Z,97246.00
2023-02-27T13:36:54.076Z,97252.00
2023-02-27T13:39:56.321Z,97243.00
2023-02-27T13:42:25.752Z,97238.00
2023-02-27T13:44:54.350Z,97238.00
2023-02-27T13:47:30.515Z,97243.00
2023-02-27T13:50:21.271Z,97235.00
2023-02-27T13:52:48.560Z,97238.00
2023-02-27T13:55:36.929Z,97241.00
2023-02-27T13:58:05.587Z,97243.00
2023-02-27T14:00:34.905Z,97247.00
2023-02-27T14:03:22.992Z,97246.00
2023-02-27T14:05:53.175Z,97245.00
2023-02-27T14:08:27.130Z,97249.00
2023-02-27T14:11:20.594Z,97254.00
2023-02-27T14:13:50.124Z,97230.00
2023-02-27T14:16:42.724Z,97263.00
2023-02-27T14:19:14.933Z,97255.00
2023-02-27T14:22:31.440Z,97254.00
2023-02-27T14:25:13.932Z,97259.00
2023-02-27T14:27:43.718Z,97254.00
2023-02-27T14:30:29.609Z,97260.00
2023-02-27T14:33:37.587Z,97252.00
2023-02-27T14:36:13.980Z,97262.00
2023-02-27T14:38:40.919Z,97263.00
2023-02-27T14:41:33.325Z,97270.00
2023-02-27T14:44:02.192Z,97277.00
2023-02-27T14:46:37.950Z,97258.00
2023-02-27T14:49:22.775Z,97267.00
2023-02-27T14:51:50.569Z,97259.00
2023-02-27T14:54:28.894Z,97270.00
2023-02-27T14:57:04.380Z,97260.00
2023-02-27T14:59:42.034Z,97271.00
2023-02-27T15:02:34.529Z,97274.00
2023-02-27T15:05:01.178Z,97280.00
2023-02-27T15:07:34.127Z,97274.00
2023-02-27T15:10:07.306Z,97268.00
2023-02-27T15:12:39.089Z,97285.00
2023-02-27T15:15:09.000Z,97280.00
2023-02-27T15:17:43.313Z,97277.00
2023-02-27T15:20:31.993Z,97278.00
2023-02-27T15:23:02.411Z,97275.00
2023-02-27T15:25:38.412Z,97293.00
2023-02-27T15:28:25.462Z,97284.00
2023-02-27T15:30:55.282Z,97291.00
2023-02-27T15:33:30.857Z,97294.00
2023-02-27T15:35:58.690Z,97295.00
2023-02-27T15:38:30.926Z,97301.00
2023-02-27T15:40:59.845Z,97304.00
2023-02-27T15:43:28.169Z,97304.00
2023-02-27T15:45:56.031Z,97304.00
2023-02-27T15:48:23.197Z,97294.00
2023-02-27T15:50:57.541Z,97310.00
2023-02-27T15:53:27.079Z,97307.00
2023-02-27T15:55:57.967Z,97317.00
2023-02-27T15:58:26.639Z,97320.00
2023-02-27T16:01:05.795Z,97317.00
2023-02-27T16:03:49.442Z,97319.00
2023-02-27T16:06:26.794Z,97315.00
2023-02-27T16:09:01.379Z,97313.00
2023-02-27T16:11:34.760Z,97322.00
2023-02-27T16:14:02.300Z,97319.00
2023-02-27T16:16:38.411Z,97319.00
2023-02-27T16:19:30.989Z,97325.00
2023-02-27T16:22:19.882Z,97328.00
2023-02-27T16:24:47.725Z,97330.00
2023-02-27T16:27:27.279Z,97328.00
2023-02-27T16:29:57.349Z,97327.00
2023-02-27T16:32:29.158Z,97327.00
2023-02-27T16:35:08.501Z,97329.00
2023-02-27T16:37:41.140Z,97330.00
2023-02-27T16:40:23.280Z,97342.00
2023-02-27T16:42:51.189Z,97340.00
2023-02-27T16:45:27.879Z,97346.00
2023-02-27T16:47:58.695Z,97346.00
2023-02-27T16:50:35.720Z,97340.00
2023-02-27T16:53:02.511Z,97355.00
2023-02-27T16:55:29.482Z,97342.00
2023-02-27T16:57:56.261Z,97345.00
2023-02-27T17:00:23.454Z,97354.00
2023-02-27T17:02:51.188Z,97358.00
2023-02-27T17:05:18.630Z,97366.00
2023-02-27T17:07:45.676Z,97367.00
2023-02-27T17:10:21.905Z,97361.00
2023-02-27T17:12:48.727Z,97373.00
2023-02-27T17:15:15.951Z,97369.00
2023-02-27T17:17:43.275Z,97381.00
2023-02-27T17:20:12.299Z,97382.00
2023-02-27T17:22:42.130Z,97395.00
2023-02-27T17:25:10.729Z,97391.00
2023-02-27T17:27:37.489Z,97395.00
2023-02-27T17:30:05.950Z,97391.00
2023-02-27T17:32:34.467Z,97402.00
2023-02-27T17:35:01.369Z,97400.00
2023-02-27T17:37:28.155Z,97405.00
2023-02-27T17:39:55.344Z,97406.00
2023-02-27T17:42:25.498Z,97404.00
2023-02-27T17:44:52.408Z,97411.00
2023-02-27T17:47:19.548Z,97412.00
2023-02-27T17:49:46.448Z,97419.00
2023-02-27T17:52:13.306Z,97427.00
2023-02-27T17:54:40.136Z,97427.00
2023-02-27T17:57:09.201Z,97437.00
2023-02-27T17:59:36.259Z,97434.00
2023-02-27T18:02:03.073Z,97440.00
2023-02-27T18:04:29.992Z,97447.00
2023-02-27T18:06:56.778Z,97445.00
2023-02-27T18:09:23.695Z,97454.00
2023-02-27T18:11:50.487Z,97451.00
2023-02-27T18:14:17.391Z,97451.00
2023-02-27T18:16:45.028Z,97458.00
2023-02-27T18:19:12.020Z,97460.00
2023-02-27T18:21:38.857Z,97466.00
2023-02-27T18:24:06.094Z,97469.00
2023-02-27T18:26:33.607Z,97472.00
2023-02-27T18:29:08.209Z,97466.00
2023-02-27T18:31:53.622Z,97468.00
2023-02-27T18:34:21.954Z,97461.00
2023-02-27T18:36:49.057Z,97466.00
2023-02-27T18:39:15.849Z,97463.00
2023-02-27T18:41:42.610Z,97457.00
2023-02-27T18:44:10.520Z,97457.00
2023-02-27T18:46:38.706Z,97460.00
2023-02-27T18:49:05.683Z,97458.00
2023-02-27T18:51:32.487Z,97461.00
2023-02-27T18:54:00.776Z,97464.00
2023-02-27T18:56:30.437Z,97470.00
2023-02-27T18:59:01.834Z,97462.00
2023-02-27T19:01:32.679Z,97456.00
2023-02-27T19:04:03.992Z,97468.00
2023-02-27T19:06:36.733Z,97461.00
2023-02-27T19:09:13.487Z,97461.00
2023-02-27T19:11:40.297Z,97473.00
2023-02-27T19:14:10.839Z,97465.00
2023-02-27T19:16:37.755Z,97462.00
2023-02-27T19:19:05.091Z,97464.00
2023-02-27T19:21:32.887Z,97464.00
2023-02-27T19:24:00.808Z,97464.00
2023-02-27T19:26:28.378Z,97471.00
2023-02-27T19:28:56.234Z,97457.00
2023-02-27T19:31:24.766Z,97450.00
2023-02-27T19:33:51.906Z,97462.00
2023-02-27T19:36:20.926Z,97455.00
2023-02-27T19:38:48.721Z,97460.00
2023-02-27T19:41:17.304Z,97469.00
2023-02-27T19:43:45.423Z,97465.00
2023-02-27T19:46:29.570Z,97466.00
2023-02-27T19:48:59.406Z,97463.00
2023-02-27T19:51:26.651Z,97457.00
2023-02-27T19:53:54.102Z,97450.00
2023-02-27T19:56:24.890Z,97458.00
2023-02-27T19:58:52.708Z,97460.00
2023-02-27T20:01:30.876Z,97469.00
2023-02-27T20:03:59.156Z,97468.00
2023-02-27T20:06:29.927Z,97457.00
2023-02-27T20:08:58.333Z,97460.00
2023-02-27T20:11:30.020Z,97464.00
2023-02-27T20:13:57.527Z,97469.00
2023-02-27T20:16:28.029Z,97468.00
2023-02-27T20:18:55.150Z,97467.00
2023-02-27T20:21:24.336Z,97463.00
2023-02-27T20:23:51.840Z,97456.00
2023-02-27T20:26:26.493Z,97460.00
2023-02-27T20:28:56.698Z,97448.00
2023-02-27T20:31:27.351Z,97454.00
2023-02-27T20:33:55.248Z,97456.00
2023-02-27T20:36:22.082Z,97456.00
2023-02-27T20:38:49.041Z,97453.00
2023-02-27T20:41:22.514Z,97452.00
2023-02-27T20:43:49.596Z,97454.00
2023-02-27T20:46:24.646Z,97445.00
2023-02-27T20:48:51.597Z,97440.00
2023-02-27T20:51:22.498Z,97434.00
2023-02-27T20:53:53.139Z,97438.00
2023-02-27T20:56:25.334Z,97436.00
2023-02-27T20:58:52.103Z,97431.00
2023-02-27T21:01:20.197Z,97434.00
2023-02-27T21:03:50.659Z,97439.00
2023-02-27T21:06:19.088Z,97438.00
2023-02-27T21:08:52.652Z,97434.00
2023-02-27T21:11:31.386Z,97421.00
2023-02-27T21:14:03.799Z,97423.00
2023-02-27T21:16:30.620Z,97424.00
2023-02-27T21:18:57.518Z,97423.00
2023-02-27T21:21:31.554Z,97425.00
2023-02-27T21:23:59.129Z,97429.00
2023-02-27T21:26:31.263Z,97421.00
2023-02-27T21:29:20.505Z,97427.00
2023-02-27T21:31:49.288Z,97429.00
2023-02-27T21:34:25.507Z,97416.00
2023-02-27T21:36:53.647Z,97419.00
2023-02-27T21:39:25.746Z,97424.00
2023-02-27T21:41:53.364Z,97424.00
2023-02-27T21:44:24.987Z,97425.00
2023-02-27T21:46:53.323Z,97425.00
2023-02-27T21:49:24.162Z,97422.00
2023-02-27T21:51:51.039Z,97412.00
2023-02-27T21:54:22.350Z,97419.00
2023-02-27T21:56:49.924Z,97424.00
2023-02-27T21:59:21.477Z,97415.00
2023-02-27T22:01:48.844Z,97417.00
2023-02-27T22:04:18.864Z,97420.00
2023-02-27T22:06:47.539Z,97416.00
2023-02-27T22:09:15.171Z,97420.00
2023-02-27T22:11:42.092Z,97411.00
2023-02-27T22:14:10.500Z,97423.00
2023-02-27T22:16:38.259Z,97421.00
2023-02-27T22:19:13.580Z,97419.00
2023-02-27T22:21:41.077Z,97422.00
2023-02-27T22:24:07.995Z,97417.00
2023-02-27T22:26:35.180Z,97423.00
2023-02-27T22:29:02.262Z,97420.00
2023-02-27T22:31:35.983Z,97419.00
2023-02-27T22:34:10.622Z,97418.00
2023-02-27T22:36:37.644Z,97420.00
2023-02-27T22:39:06.303Z,97412.00
2023-02-27T22:41:36.764Z,97418.00
2023-02-27T22:44:04.402Z,97426.00
2023-02-27T22:46:36.430Z,97417.00
2023-02-27T22:49:08.109Z,97414.00
2023-02-27T22:51:35.641Z,97415.00
2023-02-27T22:54:04.890Z,97419.00
2023-02-27T22:56:32.682Z,97416.00
2023-02-27T22:59:00.214Z,97416.00
2023-02-27T23:01:30.808Z,97428.00
2023-02-27T23:04:04.062Z,97418.00
2023-02-27T23:06:40.789Z,97417.00
2023-02-27T23:09:18.312Z,97420.00
2023-02-27T23:11:45.958Z,97419.00
2023-02-27T23:14:13.493Z,97427.00
2023-02-27T23:16:45.349Z,97423.00
2023-02-27T23:19:15.793Z,97419.00
2023-02-27T23:21:42.826Z,97415.00
2023-02-27T23:24:16.776Z,97413.00
2023-02-27T23:26:50.360Z,97420.00
2023-02-27T23:29:17.323Z,97421.00
2023-02-27T23:31:44.213Z,97415.00
2023-02-27T23:34:11.122Z,97415.00
2023-02-27T23:36:39.379Z,97416.00
2023-02-27T23:39:07.232Z,97432.00
2023-02-27T23:41:34.941Z,97426.00
2023-02-27T23:44:02.050Z,97428.00
2023-02-27T23:46:30.576Z,97418.00
2023-02-27T23:49:01.807Z,97418.00
2023-02-27T23:51:30.656Z,97419.00
2023-02-27T23:53:58.732Z,97419.00
2023-02-27T23:56:29.412Z,97424.00
2023-02-27T23:59:06.001Z,97422.00
